createdAt,value
2023-10-20T00:00:08.912Z,28.15
2023-10-20T00:02:35.841Z,27.60
2023-10-20T00:05:06.381Z,30.90
2023-10-20T00:07:33.047Z,31.30
2023-10-20T00:10:01.059Z,32.45
2023-10-20T00:12:28.104Z,29.92
2023-10-20T00:14:54.846Z,30.38
2023-10-20T00:17:21.501Z,30.80
2023-10-20T00:19:48.992Z,30.02
2023-10-20T00:22:16.340Z,32.00
2023-10-20T00:24:45.294Z,30.80
2023-10-20T00:27:14.925Z,28.85
2023-10-20T00:29:42.155Z,32.10
2023-10-20T00:32:11.688Z,33.17
2023-10-20T00:34:41.068Z,31.23
2023-10-20T00:37:07.800Z,31.15
2023-10-20T00:39:36.132Z,32.00
2023-10-20T00:42:03.412Z,30.48
2023-10-20T00:44:30.523Z,31.60
2023-10-20T00:46:58.271Z,29.15
2023-10-20T00:49:24.959Z,29.65
2023-10-20T00:51:51.786Z,31.02
2023-10-20T00:54:18.525Z,30.95
2023-10-20T00:56:46.016Z,31.63
2023-10-20T00:59:12.813Z,31.25
2023-10-20T01:01:39.531Z,30.95
2023-10-20T01:04:07.185Z,29.70
2023-10-20T01:06:34.384Z,32.28
2023-10-20T01:09:01.086Z,31.08
2023-10-20T01:11:27.777Z,30.80
2023-10-20T01:13:54.406Z,32.50
2023-10-20T01:16:21.070Z,31.60
2023-10-20T01:18:47.729Z,31.88
2023-10-20T01:21:14.450Z,32.28
2023-10-20T01:23:41.531Z,32.35
2023-10-20T01:26:09.222Z,31.85
2023-10-20T01:28:35.966Z,32.92
2023-10-20T01:31:02.724Z,30.80
2023-10-20T01:33:29.437Z,32.17
2023-10-20T01:35:56.149Z,31.42
2023-10-20T01:38:22.851Z,31.77
2023-10-20T01:40:49.519Z,32.08
2023-10-20T01:43:16.283Z,30.75
2023-10-20T01:45:42.942Z,33.20
2023-10-20T01:48:10.327Z,32.83
2023-10-20T01:50:38.327Z,31.33
2023-10-20T01:53:05.437Z,34.15
2023-10-20T01:55:32.281Z,32.47
2023-10-20T01:57:59.986Z,32.50
2023-10-20T02:00:26.746Z,33.13
2023-10-20T02:02:53.541Z,30.60
2023-10-20T02:05:20.260Z,33.63
2023-10-20T02:07:46.876Z,30.23
2023-10-20T02:10:13.537Z,30.67
2023-10-20T02:12:40.242Z,31.98
2023-10-20T02:15:08.940Z,33.00
2023-10-20T02:17:36.373Z,30.88
2023-10-20T02:20:04.257Z,31.50
2023-10-20T02:22:30.931Z,33.47
2023-10-20T02:24:57.501Z,32.97
2023-10-20T02:27:24.144Z,33.45
2023-10-20T02:29:50.825Z,30.63
2023-10-20T02:32:17.448Z,32.28
2023-10-20T02:34:44.104Z,32.25
2023-10-20T02:37:13.334Z,31.23
2023-10-20T02:39:40.444Z,32.92
2023-10-20T02:42:07.097Z,34.83
2023-10-20T02:44:33.889Z,33.67
2023-10-20T02:47:00.783Z,33.38
2023-10-20T02:49:27.443Z,32.38
2023-10-20T02:51:54.046Z,31.08
2023-10-20T02:54:20.841Z,33.40
2023-10-20T02:56:47.464Z,30.75
2023-10-20T02:59:14.228Z,31.38
2023-10-20T03:01:41.406Z,31.40
2023-10-20T03:04:08.330Z,32.10
2023-10-20T03:06:35.294Z,32.15
2023-10-20T03:09:02.083Z,32.40
2023-10-20T03:11:28.829Z,30.25
2023-10-20T03:13:55.664Z,32.97
2023-10-20T03:16:23.090Z,32.53
2023-10-20T03:18:49.727Z,31.83
2023-10-20T03:21:16.486Z,30.85
2023-10-20T03:23:44.965Z,26.98
2023-10-20T03:26:13.500Z,31.50
2023-10-20T03:28:40.895Z,32.63
2023-10-20T03:31:08.522Z,32.15
2023-10-20T03:33:35.188Z,30.80
2023-10-20T03:36:05.093Z,30.73
2023-10-20T03:38:32.336Z,31.33
2023-10-20T03:41:08.917Z,30.20
2023-10-20T03:43:36.898Z,33.65
2023-10-20T03:46:05.494Z,32.67
2023-10-20T03:48:34.682Z,31.75
2023-10-20T03:51:01.533Z,33.90
2023-10-20T03:53:28.485Z,32.75
2023-10-20T03:56:13.889Z,31.80
2023-10-20T03:58:43.367Z,31.00
2023-10-20T04:01:10.481Z,31.63
2023-10-20T04:03:53.627Z,29.60
2023-10-20T04:06:23.638Z,31.63
2023-10-20T04:08:50.487Z,31.80
2023-10-20T04:11:17.247Z,32.63
2023-10-20T04:13:43.840Z,31.83
2023-10-20T04:16:14.858Z,32.33
2023-10-20T04:18:42.945Z,32.67
2023-10-20T04:21:12.790Z,33.58
2023-10-20T04:23:39.858Z,31.67
2023-10-20T04:26:17.247Z,33.85
2023-10-20T04:31:36.591Z,33.72
2023-10-20T04:34:23.963Z,34.25
2023-10-20T04:37:09.155Z,33.60
2023-10-20T04:39:54.611Z,33.40
2023-10-20T04:42:36.437Z,33.60
2023-10-20T04:45:22.309Z,34.17
2023-10-20T04:48:12.113Z,37.08
2023-10-20T04:50:53.472Z,34.70
2023-10-20T04:53:38.656Z,34.33
2023-10-20T04:56:17.621Z,34.90
2023-10-20T04:58:50.407Z,33.63
2023-10-20T05:01:40.187Z,36.00
2023-10-20T05:04:36.245Z,33.05
2023-10-20T05:07:11.446Z,32.78
2023-10-20T05:09:51.154Z,34.53
2023-10-20T05:12:17.732Z,34.05
2023-10-20T05:14:44.985Z,32.33
2023-10-20T05:17:15.460Z,35.28
2023-10-20T05:19:42.205Z,33.75
2023-10-20T05:22:10.465Z,32.42
2023-10-20T05:24:37.252Z,33.17
2023-10-20T05:27:04.964Z,34.50
2023-10-20T05:29:32.101Z,34.03
2023-10-20T05:31:59.649Z,32.67
2023-10-20T05:34:26.379Z,31.63
2023-10-20T05:36:54.577Z,33.72
2023-10-20T05:39:22.727Z,34.30
2023-10-20T05:41:49.534Z,33.30
2023-10-20T05:44:19.261Z,31.90
2023-10-20T05:46:46.590Z,32.85
2023-10-20T05:49:13.237Z,34.22
2023-10-20T05:51:40.148Z,32.60
2023-10-20T05:54:06.940Z,31.10
2023-10-20T05:56:33.579Z,33.63
2023-10-20T05:59:00.396Z,32.97
2023-10-20T06:01:27.050Z,31.60
2023-10-20T06:03:53.843Z,32.10
2023-10-20T06:06:20.536Z,32.35
2023-10-20T06:08:47.165Z,31.25
2023-10-20T06:11:14.093Z,31.52
2023-10-20T06:13:40.788Z,32.38
2023-10-20T06:16:12.159Z,33.25
2023-10-20T06:18:43.820Z,32.13
2023-10-20T06:21:15.690Z,31.98
2023-10-20T06:23:42.757Z,30.92
2023-10-20T06:26:09.902Z,32.28
2023-10-20T06:28:36.538Z,31.23
2023-10-20T06:31:22.014Z,29.73
2023-10-20T06:33:49.929Z,29.10
2023-10-20T06:36:23.695Z,32.13
2023-10-20T06:38:50.482Z,30.55
2023-10-20T06:41:17.347Z,29.92
2023-10-20T06:43:47.844Z,29.88
2023-10-20T06:46:15.512Z,28.35
2023-10-20T06:48:42.370Z,28.88
2023-10-20T06:51:09.374Z,30.17
2023-10-20T06:53:36.244Z,28.95
2023-10-20T06:56:15.496Z,25.13
2023-10-20T06:58:44.161Z,26.50
2023-10-20T07:01:11.353Z,26.67
2023-10-20T07:03:38.344Z,25.98
2023-10-20T07:06:08.614Z,23.77
2023-10-20T07:08:36.477Z,22.75
2023-10-20T07:11:05.123Z,23.27
2023-10-20T07:13:35.868Z,24.10
2023-10-20T07:16:02.935Z,21.75
2023-10-20T07:18:33.276Z,19.90
2023-10-20T07:21:00.139Z,19.30
2023-10-20T07:23:27.856Z,19.40
2023-10-20T07:25:54.802Z,18.38
2023-10-20T07:28:23.124Z,17.75
2023-10-20T07:30:50.432Z,17.80
2023-10-20T07:33:17.340Z,17.80
2023-10-20T07:35:44.149Z,16.58
2023-10-20T07:38:10.998Z,17.08
2023-10-20T07:40:38.861Z,17.90
2023-10-20T07:43:08.121Z,17.73
2023-10-20T07:45:42.837Z,15.90
2023-10-20T07:48:11.130Z,15.82
2023-10-20T07:50:38.155Z,15.85
2023-10-20T07:53:05.136Z,16.77
2023-10-20T07:55:31.830Z,16.55
2023-10-20T07:57:58.439Z,14.63
2023-10-20T08:00:25.442Z,15.07
2023-10-20T08:02:54.954Z,14.02
2023-10-20T08:05:26.302Z,15.13
2023-10-20T08:07:54.388Z,15.38
2023-10-20T08:10:22.883Z,14.50
2023-10-20T08:12:50.401Z,13.15
2023-10-20T08:15:17.513Z,14.48
2023-10-20T08:17:46.979Z,14.05
2023-10-20T08:20:14.263Z,13.73
2023-10-20T08:22:41.761Z,14.00
2023-10-20T08:25:10.025Z,13.20
2023-10-20T08:27:37.751Z,14.20
2023-10-20T08:30:06.100Z,12.60
2023-10-20T08:32:32.972Z,13.15
2023-10-20T08:35:00.096Z,12.90
2023-10-20T08:37:27.134Z,14.15
2023-10-20T08:39:55.494Z,11.63
2023-10-20T08:42:25.707Z,13.15
2023-10-20T08:44:52.632Z,12.48
2023-10-20T08:47:27.176Z,13.75
2023-10-20T08:49:54.213Z,12.27
2023-10-20T08:52:20.933Z,12.20
2023-10-20T08:54:49.245Z,12.57
2023-10-20T08:57:15.966Z,12.35
2023-10-20T08:59:52.109Z,13.15
2023-10-20T09:02:20.200Z,13.02
2023-10-20T09:04:53.021Z,13.68
2023-10-20T09:07:22.717Z,12.55
2023-10-20T09:09:50.395Z,13.10
2023-10-20T09:12:17.122Z,12.45
2023-10-20T09:14:43.808Z,11.75
2023-10-20T09:17:21.307Z,13.20
2023-10-20T09:19:48.076Z,13.05
2023-10-20T09:22:14.871Z,13.88
2023-10-20T09:24:42.527Z,14.23
2023-10-20T09:27:09.674Z,13.65
2023-10-20T09:29:38.541Z,14.43
2023-10-20T09:32:06.295Z,14.35
2023-10-20T09:34:32.951Z,13.25
2023-10-20T09:37:01.900Z,13.45
2023-10-20T09:39:44.018Z,14.18
2023-10-20T09:42:14.881Z,12.32
2023-10-20T09:44:59.490Z,13.35
2023-10-20T09:47:30.666Z,14.68
2023-10-20T09:49:58.376Z,12.40
2023-10-20T09:52:25.506Z,13.80
2023-10-20T09:54:54.361Z,13.80
2023-10-20T09:57:22.181Z,14.10
2023-10-20T09:59:54.125Z,13.93
2023-10-20T10:02:31.948Z,13.38
2023-10-20T10:05:02.694Z,14.43
2023-10-20T10:07:35.815Z,13.32
2023-10-20T10:10:06.058Z,12.73
2023-10-20T10:12:34.112Z,13.23
2023-10-20T10:15:12.205Z,13.02
2023-10-20T10:17:47.433Z,13.52
2023-10-20T10:20:52.674Z,13.65
2023-10-20T10:23:33.136Z,12.27
2023-10-20T10:26:00.454Z,13.27
2023-10-20T10:28:27.307Z,13.60
2023-10-20T10:30:54.143Z,13.18
2023-10-20T10:33:25.135Z,13.00
2023-10-20T10:36:05.071Z,13.52
2023-10-20T10:38:43.395Z,13.63
2023-10-20T10:41:11.044Z,13.93
2023-10-20T10:43:38.330Z,14.07
2023-10-20T10:46:05.314Z,15.55
2023-10-20T10:48:35.492Z,13.70
2023-10-20T10:51:05.712Z,15.70
2023-10-20T10:53:32.615Z,15.30
2023-10-20T10:56:00.048Z,14.88
2023-10-20T10:58:26.873Z,14.68
2023-10-20T11:00:55.839Z,14.18
2023-10-20T11:03:25.819Z,13.77
2023-10-20T11:05:53.514Z,15.27
2023-10-20T11:08:20.983Z,16.00
2023-10-20T11:10:50.667Z,14.15
2023-10-20T11:13:21.142Z,13.18
2023-10-20T11:15:49.006Z,13.48
2023-10-20T11:18:18.148Z,13.70
2023-10-20T11:20:48.710Z,13.30
2023-10-20T11:23:20.467Z,13.32
2023-10-20T11:25:49.876Z,13.07
2023-10-20T11:28:17.129Z,13.60
2023-10-20T11:30:46.442Z,14.38
2023-10-20T11:33:16.464Z,13.38
2023-10-20T11:35:47.426Z,12.75
2023-10-20T11:38:17.608Z,14.05
2023-10-20T11:40:48.611Z,12.73
2023-10-20T11:43:15.506Z,13.93
2023-10-20T11:45:42.205Z,13.88
2023-10-20T11:48:11.847Z,13.25
2023-10-20T11:50:38.719Z,13.07
2023-10-20T11:53:06.719Z,13.10
2023-10-20T11:55:33.587Z,13.52
2023-10-20T11:58:01.918Z,14.20
2023-10-20T12:00:31.222Z,13.93
2023-10-20T12:02:58.117Z,13.40
2023-10-20T12:05:24.912Z,14.05
2023-10-20T12:07:51.951Z,13.02
2023-10-20T12:10:18.826Z,13.50
2023-10-20T12:12:45.440Z,14.15
2023-10-20T12:15:13.195Z,14.23
2023-10-20T12:17:42.432Z,13.23
2023-10-20T12:20:11.038Z,15.32
2023-10-20T12:22:37.827Z,15.73
2023-10-20T12:25:05.269Z,13.15
2023-10-20T12:27:32.421Z,13.23
2023-10-20T12:29:59.979Z,14.40
2023-10-20T12:32:28.344Z,13.85
2023-10-20T12:34:55.607Z,13.52
2023-10-20T12:37:22.284Z,13.93
2023-10-20T12:39:49.339Z,15.75
2023-10-20T12:42:16.012Z,14.13
2023-10-20T12:44:42.637Z,13.65
2023-10-20T12:47:09.237Z,15.40
2023-10-20T12:49:36.012Z,14.85
2023-10-20T12:52:04.143Z,12.43
2023-10-20T12:54:31.161Z,13.10
2023-10-20T12:57:00.103Z,13.60
2023-10-20T12:59:26.988Z,13.88
2023-10-20T13:01:54.389Z,13.27
2023-10-20T13:04:21.353Z,11.95
2023-10-20T13:06:59.307Z,13.40
2023-10-20T13:09:27.955Z,12.80
2023-10-20T13:11:57.548Z,12.70
2023-10-20T13:14:24.658Z,12.35
2023-10-20T13:16:51.867Z,11.93
2023-10-20T13:19:19.410Z,11.98
2023-10-20T13:21:46.241Z,12.00
2023-10-20T13:24:13.082Z,13.02
2023-10-20T13:26:39.902Z,12.40
2023-10-20T13:29:07.256Z,12.68
2023-10-20T13:31:35.134Z,11.88
2023-10-20T13:34:03.698Z,13.35
2023-10-20T13:36:30.737Z,13.02
2023-10-20T13:38:57.617Z,12.13
2023-10-20T13:41:25.004Z,12.48
2023-10-20T13:43:52.877Z,13.52
2023-10-20T13:46:20.058Z,12.45
2023-10-20T13:48:46.876Z,12.57
2023-10-20T13:51:13.668Z,12.23
2023-10-20T13:53:40.273Z,11.88
2023-10-20T13:56:07.105Z,11.48
2023-10-20T13:58:34.356Z,13.50
2023-10-20T14:01:00.976Z,12.68
2023-10-20T14:03:28.108Z,12.65
2023-10-20T14:05:56.221Z,11.18
2023-10-20T14:08:24.266Z,11.82
2023-10-20T14:10:51.419Z,12.13
2023-10-20T14:13:18.504Z,12.80
2023-10-20T14:15:45.847Z,12.60
2023-10-20T14:18:13.197Z,12.88
2023-10-20T14:20:40.588Z,12.68
2023-10-20T14:23:08.873Z,11.95
2023-10-20T14:25:36.305Z,12.35
2023-10-20T14:28:03.065Z,11.70
2023-10-20T14:30:29.727Z,11.48
2023-10-20T14:32:56.476Z,10.70
2023-10-20T14:35:23.658Z,10.70
2023-10-20T14:37:50.769Z,12.82
2023-10-20T14:40:17.613Z,11.82
2023-10-20T14:42:44.782Z,11.50
2023-10-20T14:45:12.829Z,10.85
2023-10-20T14:47:39.825Z,11.73
2023-10-20T14:50:07.231Z,11.23
2023-10-20T14:52:33.944Z,11.07
2023-10-20T14:55:00.671Z,11.07
2023-10-20T14:57:29.286Z,10.80
2023-10-20T14:59:57.215Z,11.45
2023-10-20T15:02:31.949Z,10.68
2023-10-20T15:05:02.661Z,10.68
2023-10-20T15:07:29.786Z,11.23
2023-10-20T15:09:56.465Z,11.55
2023-10-20T15:12:23.224Z,11.35
2023-10-20T15:14:49.965Z,12.13
2023-10-20T15:17:16.595Z,12.43
2023-10-20T15:19:43.529Z,11.10
2023-10-20T15:22:10.698Z,12.05
2023-10-20T15:24:37.401Z,11.82
2023-10-20T15:27:18.099Z,10.88
2023-10-20T15:29:46.989Z,11.48
2023-10-20T15:32:16.621Z,11.85
2023-10-20T15:34:43.523Z,10.55
2023-10-20T15:37:10.716Z,9.50
2023-10-20T15:39:49.336Z,12.13
2023-10-20T15:42:22.656Z,10.88
2023-10-20T15:44:49.568Z,12.23
2023-10-20T15:47:22.841Z,10.57
2023-10-20T15:49:58.860Z,9.95
2023-10-20T15:52:25.982Z,12.80
2023-10-20T15:54:53.732Z,9.93
2023-10-20T15:57:20.467Z,11.27
2023-10-20T15:59:47.214Z,10.93
2023-10-20T16:02:14.547Z,10.27
2023-10-20T16:04:41.279Z,11.77
2023-10-20T16:07:07.951Z,14.25
2023-10-20T16:09:35.056Z,12.50
2023-10-20T16:12:05.174Z,10.57
2023-10-20T16:14:31.874Z,10.35
2023-10-20T16:16:58.637Z,9.73
2023-10-20T16:19:25.394Z,10.93
2023-10-20T16:21:52.762Z,11.85
2023-10-20T16:24:19.796Z,11.43
2023-10-20T16:26:46.893Z,12.98
2023-10-20T16:29:16.255Z,12.70
2023-10-20T16:31:49.193Z,10.18
2023-10-20T16:34:16.307Z,12.50
2023-10-20T16:36:43.282Z,9.85
2023-10-20T16:39:13.483Z,13.45
2023-10-20T16:41:42.880Z,10.30
2023-10-20T16:44:09.936Z,11.90
2023-10-20T16:46:41.766Z,11.88
2023-10-20T16:49:09.204Z,10.70
2023-10-20T16:51:39.681Z,10.32
2023-10-20T16:54:06.607Z,13.20
2023-10-20T16:56:33.413Z,12.65
2023-10-20T16:59:00.805Z,10.80
2023-10-20T17:01:30.337Z,13.52
2023-10-20T17:03:57.351Z,11.20
2023-10-20T17:06:26.091Z,12.60
2023-10-20T17:08:52.794Z,11.15
2023-10-20T17:11:21.147Z,12.45
2023-10-20T17:13:48.479Z,13.20
2023-10-20T17:16:16.465Z,11.02
2023-10-20T17:18:43.466Z,12.63
2023-10-20T17:21:10.414Z,11.48
2023-10-20T17:23:37.190Z,10.93
2023-10-20T17:26:05.868Z,14.32
2023-10-20T17:28:33.194Z,11.82
2023-10-20T17:31:03.582Z,14.32
2023-10-20T17:33:30.527Z,11.95
2023-10-20T17:36:05.816Z,13.63
2023-10-20T17:38:33.663Z,14.40
2023-10-20T17:41:05.977Z,11.25
2023-10-20T17:43:33.632Z,13.25
2023-10-20T17:46:05.673Z,13.85
2023-10-20T17:48:32.948Z,14.45
2023-10-20T17:51:03.933Z,12.48
2023-10-20T17:53:32.401Z,13.27
2023-10-20T17:56:02.885Z,11.63
2023-10-20T17:58:31.181Z,14.57
2023-10-20T18:01:08.601Z,11.75
2023-10-20T18:03:43.911Z,14.75
2023-10-20T18:06:12.308Z,14.02
2023-10-20T18:08:44.204Z,11.23
2023-10-20T18:11:12.930Z,11.80
2023-10-20T18:13:41.394Z,13.10
2023-10-20T18:16:12.503Z,13.75
2023-10-20T18:18:40.893Z,13.45
2023-10-20T18:21:08.620Z,12.70
2023-10-20T18:23:35.874Z,12.55
2023-10-20T18:26:04.454Z,11.70
2023-10-20T18:28:31.987Z,10.27
2023-10-20T18:30:59.313Z,13.75
2023-10-20T18:33:29.850Z,13.40
2023-10-20T18:35:57.200Z,12.32
2023-10-20T18:38:24.015Z,10.20
2023-10-20T18:40:50.675Z,13.77
2023-10-20T18:43:17.742Z,13.05
2023-10-20T18:45:53.084Z,12.50
2023-10-20T18:48:20.099Z,13.52
2023-10-20T18:50:47.320Z,15.70
2023-10-20T18:53:14.064Z,14.10
2023-10-20T18:55:40.819Z,13.77
2023-10-20T18:58:07.653Z,13.10
2023-10-20T19:00:34.415Z,15.15
2023-10-20T19:03:01.267Z,13.50
2023-10-20T19:05:28.173Z,13.73
2023-10-20T19:07:55.021Z,15.40
2023-10-20T19:10:21.750Z,14.85
2023-10-20T19:12:49.312Z,15.70
2023-10-20T19:15:17.881Z,14.95
2023-10-20T19:17:44.758Z,14.57
2023-10-20T19:20:14.892Z,16.73
2023-10-20T19:22:42.117Z,16.05
2023-10-20T19:25:09.830Z,15.57
2023-10-20T19:27:36.624Z,16.30
2023-10-20T19:30:03.662Z,15.60
2023-10-20T19:32:32.686Z,15.55
2023-10-20T19:35:01.871Z,15.98
2023-10-20T19:37:28.772Z,16.35
2023-10-20T19:39:55.577Z,16.02
2023-10-20T19:42:22.406Z,16.50
2023-10-20T19:44:50.394Z,16.38
2023-10-20T19:47:17.201Z,15.27
2023-10-20T19:49:44.206Z,15.40
2023-10-20T19:52:11.054Z,14.80
2023-10-20T19:54:37.912Z,14.30
2023-10-20T19:57:04.928Z,15.93
2023-10-20T19:59:31.629Z,15.48
2023-10-20T20:01:58.480Z,15.73
2023-10-20T20:04:28.129Z,14.95
2023-10-20T20:06:54.965Z,15.85
2023-10-20T20:09:21.719Z,16.02
2023-10-20T20:11:49.943Z,16.30
2023-10-20T20:14:18.557Z,16.60
2023-10-20T20:17:04.518Z,15.75
2023-10-20T20:19:33.907Z,18.15
2023-10-20T20:22:01.096Z,17.00
2023-10-20T20:24:30.362Z,17.40
2023-10-20T20:26:58.637Z,18.80
2023-10-20T20:29:25.661Z,18.88
2023-10-20T20:31:52.376Z,17.45
2023-10-20T20:34:19.371Z,18.13
2023-10-20T20:36:49.063Z,17.70
2023-10-20T20:39:15.826Z,16.40
2023-10-20T20:41:42.787Z,17.33
2023-10-20T20:44:09.507Z,18.83
2023-10-20T20:46:36.380Z,16.95
2023-10-20T20:49:04.007Z,15.52
2023-10-20T20:51:32.867Z,14.40
2023-10-20T20:54:04.099Z,18.23
2023-10-20T20:56:31.063Z,18.98
2023-10-20T20:58:57.777Z,18.95
2023-10-20T21:01:24.771Z,18.55
2023-10-20T21:03:51.835Z,15.63
2023-10-20T21:06:20.816Z,16.75
2023-10-20T21:08:47.977Z,17.50
2023-10-20T21:11:15.952Z,16.50
2023-10-20T21:13:43.172Z,19.17
2023-10-20T21:16:11.975Z,18.15
2023-10-20T21:18:39.273Z,15.48
2023-10-20T21:21:14.896Z,17.20
2023-10-20T21:23:45.335Z,18.08
2023-10-20T21:26:15.633Z,18.35
2023-10-20T21:28:42.588Z,18.83
2023-10-20T21:31:09.690Z,17.20
2023-10-20T21:33:36.550Z,16.98
2023-10-20T21:36:04.326Z,19.35
2023-10-20T21:38:32.667Z,17.73
2023-10-20T21:40:59.586Z,17.63
2023-10-20T21:43:26.303Z,17.73
2023-10-20T21:45:59.420Z,17.73
2023-10-20T21:48:27.258Z,16.65
2023-10-20T21:51:05.201Z,16.42
2023-10-20T21:53:35.552Z,15.93
2023-10-20T21:56:04.848Z,16.63
2023-10-20T21:58:32.457Z,16.92
2023-10-20T22:01:00.071Z,17.17
2023-10-20T22:03:28.318Z,17.55
2023-10-20T22:05:55.754Z,17.75
2023-10-20T22:08:25.464Z,17.63
2023-10-20T22:10:52.370Z,17.52
2023-10-20T22:13:19.352Z,17.42
2023-10-20T22:15:49.369Z,16.30
2023-10-20T22:18:16.200Z,17.77
2023-10-20T22:20:44.072Z,17.27
2023-10-20T22:23:12.402Z,17.20
2023-10-20T22:25:42.416Z,18.08
2023-10-20T22:28:09.154Z,18.35
2023-10-20T22:30:35.965Z,17.50
2023-10-20T22:33:03.692Z,16.98
2023-10-20T22:35:31.363Z,16.60
2023-10-20T22:37:58.316Z,17.13
2023-10-20T22:40:25.191Z,15.77
2023-10-20T22:42:52.001Z,17.25
2023-10-20T22:45:23.975Z,17.08
2023-10-20T22:47:54.360Z,14.98
2023-10-20T22:50:21.346Z,17.77
2023-10-20T22:52:48.970Z,16.42
2023-10-20T22:55:15.712Z,15.65
2023-10-20T22:57:42.426Z,16.63
2023-10-20T23:00:10.869Z,15.98
2023-10-20T23:02:39.509Z,16.70
2023-10-20T23:05:08.046Z,14.77
2023-10-20T23:07:35.793Z,14.30
2023-10-20T23:10:04.641Z,16.73
2023-10-20T23:12:32.958Z,16.63
2023-10-20T23:14:59.992Z,15.55
2023-10-20T23:17:27.415Z,16.13
2023-10-20T23:19:55.796Z,16.98
2023-10-20T23:22:22.461Z,17.42
2023-10-20T23:24:49.184Z,16.30
2023-10-20T23:27:15.830Z,16.15
2023-10-20T23:29:42.550Z,17.73
2023-10-20T23:32:09.936Z,16.58
2023-10-20T23:34:37.063Z,17.13
2023-10-20T23:37:04.460Z,15.35
2023-10-20T23:39:34.010Z,14.77
2023-10-20T23:42:01.724Z,14.98
2023-10-20T23:44:29.343Z,15.98
2023-10-20T23:46:56.579Z,14.32
2023-10-20T23:49:23.899Z,12.55
2023-10-20T23:51:51.632Z,14.57
2023-10-20T23:54:18.404Z,11.73
2023-10-20T23:56:45.050Z,12.05
2023-10-20T23:59:11.699Z,14.68
